sensor_id;sensor_type;location;lat;lon;timestamp;P1;durP1;ratioP1;P2;durP2;ratioP2
18383;SDS011;9318;48.644;9.456;2023-11-19T00:02:18;1.10;;;1.10;;
18383;SDS011;9318;48.644;9.456;2023-11-19T00:04:45;1.30;;;1.30;;
18383;SDS011;9318;48.644;9.456;2023-11-19T00:07:13;1.20;;;1.20;;
18383;SDS011;9318;48.644;9.456;2023-11-19T00:09:40;1.30;;;1.30;;
18383;SDS011;9318;48.644;9.456;2023-11-19T00:12:08;1.20;;;1.20;;
18383;SDS011;9318;48.644;9.456;2023-11-19T00:14:35;1.20;;;1.20;;
18383;SDS011;9318;48.644;9.456;2023-11-19T00:17:02;1.20;;;1.20;;
18383;SDS011;9318;48.644;9.456;2023-11-19T00:19:29;1.23;;;1.23;;
18383;SDS011;9318;48.644;9.456;2023-11-19T00:21:56;1.30;;;1.30;;
18383;SDS011;9318;48.644;9.456;2023-11-19T00:24:28;1.30;;;1.30;;
18383;SDS011;9318;48.644;9.456;2023-11-19T00:26:55;1.20;;;1.20;;
18383;SDS011;9318;48.644;9.456;2023-11-19T00:29:22;1.20;;;1.20;;
18383;SDS011;9318;48.644;9.456;2023-11-19T00:31:49;1.10;;;1.10;;
18383;SDS011;9318;48.644;9.456;2023-11-19T00:34:16;1.00;;;1.00;;
18383;SDS011;9318;48.644;9.456;2023-11-19T00:36:46;1.20;;;1.20;;
18383;SDS011;9318;48.644;9.456;2023-11-19T00:39:13;1.20;;;1.20;;
18383;SDS011;9318;48.644;9.456;2023-11-19T00:41:42;1.37;;;1.37;;
18383;SDS011;9318;48.644;9.456;2023-11-19T00:44:08;1.20;;;1.20;;
18383;SDS011;9318;48.644;9.456;2023-11-19T00:46:35;1.10;;;1.10;;
18383;SDS011;9318;48.644;9.456;2023-11-19T00:49:02;1.07;;;1.07;;
18383;SDS011;9318;48.644;9.456;2023-11-19T00:51:29;1.13;;;1.13;;
18383;SDS011;9318;48.644;9.456;2023-11-19T00:53:57;1.20;;;1.20;;
18383;SDS011;9318;48.644;9.456;2023-11-19T00:56:24;1.30;;;1.30;;
18383;SDS011;9318;48.644;9.456;2023-11-19T00:58:52;1.30;;;1.30;;
18383;SDS011;9318;48.644;9.456;2023-11-19T01:01:18;1.27;;;1.27;;
18383;SDS011;9318;48.644;9.456;2023-11-19T01:03:45;1.20;;;1.20;;
18383;SDS011;9318;48.644;9.456;2023-11-19T01:06:12;1.20;;;1.20;;
18383;SDS011;9318;48.644;9.456;2023-11-19T01:08:42;1.30;;;1.30;;
18383;SDS011;9318;48.644;9.456;2023-11-19T01:11:09;1.10;;;1.10;;
18383;SDS011;9318;48.644;9.456;2023-11-19T01:13:45;1.30;;;1.30;;
18383;SDS011;9318;48.644;9.456;2023-11-19T01:16:14;1.20;;;1.20;;
18383;SDS011;9318;48.644;9.456;2023-11-19T01:18:40;1.20;;;1.20;;
18383;SDS011;9318;48.644;9.456;2023-11-19T01:21:07;1.30;;;1.30;;
18383;SDS011;9318;48.644;9.456;2023-11-19T01:23:34;1.20;;;1.20;;
18383;SDS011;9318;48.644;9.456;2023-11-19T01:26:02;1.10;;;1.10;;
18383;SDS011;9318;48.644;9.456;2023-11-19T01:28:30;1.20;;;1.20;;
18383;SDS011;9318;48.644;9.456;2023-11-19T01:30:57;1.13;;;1.13;;
18383;SDS011;9318;48.644;9.456;2023-11-19T01:33:25;1.10;;;1.10;;
18383;SDS011;9318;48.644;9.456;2023-11-19T01:35:52;1.20;;;1.20;;
18383;SDS011;9318;48.644;9.456;2023-11-19T01:38:20;1.03;;;1.03;;
18383;SDS011;9318;48.644;9.456;2023-11-19T01:40:46;1.10;;;1.10;;
18383;SDS011;9318;48.644;9.456;2023-11-19T01:45:59;1.20;;;1.20;;
18383;SDS011;9318;48.644;9.456;2023-11-19T01:48:27;1.20;;;1.20;;
18383;SDS011;9318;48.644;9.456;2023-11-19T01:50:54;1.30;;;1.30;;
18383;SDS011;9318;48.644;9.456;2023-11-19T01:53:22;1.23;;;1.23;;
18383;SDS011;9318;48.644;9.456;2023-11-19T01:55:50;1.20;;;1.20;;
18383;SDS011;9318;48.644;9.456;2023-11-19T01:58:17;1.00;;;1.00;;
18383;SDS011;9318;48.644;9.456;2023-11-19T02:00:44;1.07;;;1.07;;
18383;SDS011;9318;48.644;9.456;2023-11-19T02:03:11;1.10;;;1.10;;
18383;SDS011;9318;48.644;9.456;2023-11-19T02:05:39;1.10;;;1.10;;
18383;SDS011;9318;48.644;9.456;2023-11-19T02:08:06;1.10;;;1.10;;
18383;SDS011;9318;48.644;9.456;2023-11-19T02:10:33;1.03;;;1.03;;
18383;SDS011;9318;48.644;9.456;2023-11-19T02:13:01;1.10;;;1.10;;
18383;SDS011;9318;48.644;9.456;2023-11-19T02:15:30;1.10;;;1.10;;
18383;SDS011;9318;48.644;9.456;2023-11-19T02:17:57;1.00;;;1.00;;
18383;SDS011;9318;48.644;9.456;2023-11-19T02:20:44;1.00;;;1.00;;
18383;SDS011;9318;48.644;9.456;2023-11-19T02:23:11;1.17;;;1.17;;
18383;SDS011;9318;48.644;9.456;2023-11-19T02:25:39;1.10;;;1.10;;
18383;SDS011;9318;48.644;9.456;2023-11-19T02:28:08;1.20;;;1.20;;
18383;SDS011;9318;48.644;9.456;2023-11-19T02:30:37;1.10;;;1.10;;
18383;SDS011;9318;48.644;9.456;2023-11-19T02:33:03;1.10;;;1.10;;
18383;SDS011;9318;48.644;9.456;2023-11-19T02:35:31;1.10;;;1.10;;
18383;SDS011;9318;48.644;9.456;2023-11-19T02:37:58;1.20;;;1.20;;
18383;SDS011;9318;48.644;9.456;2023-11-19T02:40:25;0.97;;;0.97;;
18383;SDS011;9318;48.644;9.456;2023-11-19T02:42:52;1.03;;;1.03;;
18383;SDS011;9318;48.644;9.456;2023-11-19T02:45:22;1.20;;;1.20;;
18383;SDS011;9318;48.644;9.456;2023-11-19T02:47:50;1.10;;;1.10;;
18383;SDS011;9318;48.644;9.456;2023-11-19T02:50:16;1.40;;;1.40;;
18383;SDS011;9318;48.644;9.456;2023-11-19T02:52:50;1.10;;;1.10;;
18383;SDS011;9318;48.644;9.456;2023-11-19T02:55:18;1.10;;;1.10;;
18383;SDS011;9318;48.644;9.456;2023-11-19T02:57:45;1.20;;;1.20;;
18383;SDS011;9318;48.644;9.456;2023-11-19T03:00:14;1.10;;;1.10;;
18383;SDS011;9318;48.644;9.456;2023-11-19T03:02:42;1.20;;;1.20;;
18383;SDS011;9318;48.644;9.456;2023-11-19T03:05:11;1.10;;;1.10;;
18383;SDS011;9318;48.644;9.456;2023-11-19T03:07:39;1.30;;;1.30;;
18383;SDS011;9318;48.644;9.456;2023-11-19T03:10:07;1.20;;;1.20;;
18383;SDS011;9318;48.644;9.456;2023-11-19T03:12:37;1.20;;;1.20;;
18383;SDS011;9318;48.644;9.456;2023-11-19T03:15:05;1.10;;;1.10;;
18383;SDS011;9318;48.644;9.456;2023-11-19T03:17:34;1.27;;;1.27;;
18383;SDS011;9318;48.644;9.456;2023-11-19T03:20:03;1.10;;;1.10;;
18383;SDS011;9318;48.644;9.456;2023-11-19T03:22:32;1.10;;;1.10;;
18383;SDS011;9318;48.644;9.456;2023-11-19T03:24:59;0.90;;;0.90;;
18383;SDS011;9318;48.644;9.456;2023-11-19T03:27:26;1.10;;;1.10;;
18383;SDS011;9318;48.644;9.456;2023-11-19T03:29:53;0.90;;;0.90;;
18383;SDS011;9318;48.644;9.456;2023-11-19T03:32:19;0.93;;;0.93;;
18383;SDS011;9318;48.644;9.456;2023-11-19T03:34:46;1.20;;;1.20;;
18383;SDS011;9318;48.644;9.456;2023-11-19T03:37:14;1.00;;;1.00;;
18383;SDS011;9318;48.644;9.456;2023-11-19T03:39:42;1.10;;;1.10;;
18383;SDS011;9318;48.644;9.456;2023-11-19T03:42:09;1.10;;;1.10;;
18383;SDS011;9318;48.644;9.456;2023-11-19T03:44:34;1.10;;;1.10;;
18383;SDS011;9318;48.644;9.456;2023-11-19T03:47:01;1.03;;;1.03;;
18383;SDS011;9318;48.644;9.456;2023-11-19T03:49:28;1.00;;;1.00;;
18383;SDS011;9318;48.644;9.456;2023-11-19T03:51:55;1.10;;;1.10;;
18383;SDS011;9318;48.644;9.456;2023-11-19T03:54:23;1.00;;;1.00;;
18383;SDS011;9318;48.644;9.456;2023-11-19T03:56:49;1.10;;;1.10;;
18383;SDS011;9318;48.644;9.456;2023-11-19T03:59:16;1.30;;;1.30;;
18383;SDS011;9318;48.644;9.456;2023-11-19T04:01:45;1.20;;;1.20;;
18383;SDS011;9318;48.644;9.456;2023-11-19T04:04:12;1.20;;;1.20;;
18383;SDS011;9318;48.644;9.456;2023-11-19T04:06:39;1.13;;;1.13;;
18383;SDS011;9318;48.644;9.456;2023-11-19T04:09:06;1.20;;;1.20;;
18383;SDS011;9318;48.644;9.456;2023-11-19T04:11:35;1.00;;;1.00;;
18383;SDS011;9318;48.644;9.456;2023-11-19T04:14:02;1.00;;;1.00;;
18383;SDS011;9318;48.644;9.456;2023-11-19T04:16:28;1.00;;;1.00;;
18383;SDS011;9318;48.644;9.456;2023-11-19T04:18:55;1.00;;;1.00;;
18383;SDS011;9318;48.644;9.456;2023-11-19T04:21:22;1.10;;;1.10;;
18383;SDS011;9318;48.644;9.456;2023-11-19T04:23:49;1.20;;;1.20;;
18383;SDS011;9318;48.644;9.456;2023-11-19T04:26:16;1.20;;;1.20;;
18383;SDS011;9318;48.644;9.456;2023-11-19T04:28:44;1.10;;;1.10;;
18383;SDS011;9318;48.644;9.456;2023-11-19T04:31:10;1.00;;;1.00;;
18383;SDS011;9318;48.644;9.456;2023-11-19T04:33:37;1.10;;;1.10;;
18383;SDS011;9318;48.644;9.456;2023-11-19T04:36:04;1.00;;;1.00;;
18383;SDS011;9318;48.644;9.456;2023-11-19T04:38:32;1.10;;;1.10;;
18383;SDS011;9318;48.644;9.456;2023-11-19T04:40:59;1.20;;;1.20;;
18383;SDS011;9318;48.644;9.456;2023-11-19T04:43:26;1.20;;;1.20;;
18383;SDS011;9318;48.644;9.456;2023-11-19T04:45:54;1.07;;;1.07;;
18383;SDS011;9318;48.644;9.456;2023-11-19T04:48:21;1.10;;;1.10;;
18383;SDS011;9318;48.644;9.456;2023-11-19T04:50:48;1.20;;;1.20;;
18383;SDS011;9318;48.644;9.456;2023-11-19T04:53:15;1.10;;;1.10;;
18383;SDS011;9318;48.644;9.456;2023-11-19T04:55:42;1.10;;;1.10;;
18383;SDS011;9318;48.644;9.456;2023-11-19T04:58:09;1.00;;;1.00;;
18383;SDS011;9318;48.644;9.456;2023-11-19T05:00:35;1.10;;;1.10;;
18383;SDS011;9318;48.644;9.456;2023-11-19T05:03:03;1.10;;;1.10;;
18383;SDS011;9318;48.644;9.456;2023-11-19T05:05:30;1.00;;;1.00;;
18383;SDS011;9318;48.644;9.456;2023-11-19T05:07:57;1.10;;;1.10;;
18383;SDS011;9318;48.644;9.456;2023-11-19T05:10:24;1.20;;;1.20;;
18383;SDS011;9318;48.644;9.456;2023-11-19T05:12:50;1.10;;;1.10;;
18383;SDS011;9318;48.644;9.456;2023-11-19T05:15:17;1.10;;;1.10;;
18383;SDS011;9318;48.644;9.456;2023-11-19T05:17:44;1.03;;;1.03;;
18383;SDS011;9318;48.644;9.456;2023-11-19T05:20:12;1.17;;;1.17;;
18383;SDS011;9318;48.644;9.456;2023-11-19T05:22:40;1.20;;;1.20;;
18383;SDS011;9318;48.644;9.456;2023-11-19T05:25:07;1.13;;;1.13;;
18383;SDS011;9318;48.644;9.456;2023-11-19T05:27:35;1.10;;;1.10;;
18383;SDS011;9318;48.644;9.456;2023-11-19T05:30:02;1.00;;;1.00;;
18383;SDS011;9318;48.644;9.456;2023-11-19T05:32:32;1.03;;;1.03;;
18383;SDS011;9318;48.644;9.456;2023-11-19T05:34:59;1.10;;;1.10;;
18383;SDS011;9318;48.644;9.456;2023-11-19T05:37:27;1.20;;;1.20;;
18383;SDS011;9318;48.644;9.456;2023-11-19T05:39:54;1.10;;;1.10;;
18383;SDS011;9318;48.644;9.456;2023-11-19T05:42:20;1.10;;;1.10;;
18383;SDS011;9318;48.644;9.456;2023-11-19T05:44:48;0.97;;;0.97;;
18383;SDS011;9318;48.644;9.456;2023-11-19T05:47:15;1.00;;;1.00;;
18383;SDS011;9318;48.644;9.456;2023-11-19T05:49:42;1.20;;;1.20;;
18383;SDS011;9318;48.644;9.456;2023-11-19T05:52:08;1.00;;;1.00;;
18383;SDS011;9318;48.644;9.456;2023-11-19T05:54:38;1.00;;;1.00;;
18383;SDS011;9318;48.644;9.456;2023-11-19T05:57:05;1.10;;;1.10;;
18383;SDS011;9318;48.644;9.456;2023-11-19T05:59:34;1.00;;;1.00;;
18383;SDS011;9318;48.644;9.456;2023-11-19T06:02:01;1.10;;;1.10;;
18383;SDS011;9318;48.644;9.456;2023-11-19T06:04:28;1.00;;;1.00;;
18383;SDS011;9318;48.644;9.456;2023-11-19T06:06:55;1.10;;;1.10;;
18383;SDS011;9318;48.644;9.456;2023-11-19T06:09:22;1.20;;;1.20;;
18383;SDS011;9318;48.644;9.456;2023-11-19T06:11:50;1.20;;;1.20;;
18383;SDS011;9318;48.644;9.456;2023-11-19T06:14:18;1.20;;;1.20;;
18383;SDS011;9318;48.644;9.456;2023-11-19T06:16:44;0.93;;;0.93;;
18383;SDS011;9318;48.644;9.456;2023-11-19T06:19:10;1.13;;;1.13;;
18383;SDS011;9318;48.644;9.456;2023-11-19T06:21:38;1.13;;;1.13;;
18383;SDS011;9318;48.644;9.456;2023-11-19T06:24:04;1.10;;;1.10;;
18383;SDS011;9318;48.644;9.456;2023-11-19T06:26:31;1.07;;;1.07;;
18383;SDS011;9318;48.644;9.456;2023-11-19T06:29:00;1.00;;;1.00;;
18383;SDS011;9318;48.644;9.456;2023-11-19T06:31:26;0.80;;;0.80;;
18383;SDS011;9318;48.644;9.456;2023-11-19T06:33:53;0.90;;;0.90;;
18383;SDS011;9318;48.644;9.456;2023-11-19T06:36:20;1.10;;;1.10;;
18383;SDS011;9318;48.644;9.456;2023-11-19T06:38:47;1.10;;;1.10;;
18383;SDS011;9318;48.644;9.456;2023-11-19T06:41:14;1.07;;;1.07;;
18383;SDS011;9318;48.644;9.456;2023-11-19T06:43:40;1.00;;;1.00;;
18383;SDS011;9318;48.644;9.456;2023-11-19T06:46:15;1.07;;;1.07;;
18383;SDS011;9318;48.644;9.456;2023-11-19T06:48:42;1.00;;;1.00;;
18383;SDS011;9318;48.644;9.456;2023-11-19T06:51:10;1.10;;;1.10;;
18383;SDS011;9318;48.644;9.456;2023-11-19T06:53:37;1.10;;;1.10;;
18383;SDS011;9318;48.644;9.456;2023-11-19T06:56:04;1.00;;;1.00;;
18383;SDS011;9318;48.644;9.456;2023-11-19T06:58:35;1.10;;;1.10;;
18383;SDS011;9318;48.644;9.456;2023-11-19T07:01:02;1.00;;;1.00;;
18383;SDS011;9318;48.644;9.456;2023-11-19T07:03:31;1.00;;;1.00;;
18383;SDS011;9318;48.644;9.456;2023-11-19T07:05:57;1.10;;;1.10;;
18383;SDS011;9318;48.644;9.456;2023-11-19T07:08:24;1.20;;;1.20;;
18383;SDS011;9318;48.644;9.456;2023-11-19T07:10:51;0.80;;;0.80;;
18383;SDS011;9318;48.644;9.456;2023-11-19T07:13:18;1.00;;;1.00;;
18383;SDS011;9318;48.644;9.456;2023-11-19T07:15:46;1.00;;;1.00;;
18383;SDS011;9318;48.644;9.456;2023-11-19T07:18:13;0.90;;;0.90;;
18383;SDS011;9318;48.644;9.456;2023-11-19T07:20:41;0.90;;;0.90;;
18383;SDS011;9318;48.644;9.456;2023-11-19T07:23:08;1.10;;;1.10;;
18383;SDS011;9318;48.644;9.456;2023-11-19T07:25:35;1.17;;;1.17;;
18383;SDS011;9318;48.644;9.456;2023-11-19T07:28:02;1.00;;;1.00;;
18383;SDS011;9318;48.644;9.456;2023-11-19T07:30:29;1.10;;;1.10;;
18383;SDS011;9318;48.644;9.456;2023-11-19T07:32:56;1.00;;;1.00;;
18383;SDS011;9318;48.644;9.456;2023-11-19T07:35:23;1.10;;;1.10;;
18383;SDS011;9318;48.644;9.456;2023-11-19T07:37:51;1.20;;;1.20;;
18383;SDS011;9318;48.644;9.456;2023-11-19T07:40:18;1.10;;;1.10;;
18383;SDS011;9318;48.644;9.456;2023-11-19T07:42:45;1.00;;;1.00;;
18383;SDS011;9318;48.644;9.456;2023-11-19T07:45:11;1.00;;;1.00;;
18383;SDS011;9318;48.644;9.456;2023-11-19T07:47:38;1.10;;;1.10;;
18383;SDS011;9318;48.644;9.456;2023-11-19T07:50:05;1.03;;;1.03;;
18383;SDS011;9318;48.644;9.456;2023-11-19T07:52:33;1.10;;;1.10;;
18383;SDS011;9318;48.644;9.456;2023-11-19T07:55:01;1.20;;;1.20;;
18383;SDS011;9318;48.644;9.456;2023-11-19T07:57:27;1.10;;;1.10;;
18383;SDS011;9318;48.644;9.456;2023-11-19T07:59:56;0.80;;;0.80;;
18383;SDS011;9318;48.644;9.456;2023-11-19T08:02:22;1.00;;;1.00;;
18383;SDS011;9318;48.644;9.456;2023-11-19T08:04:49;1.00;;;1.00;;
18383;SDS011;9318;48.644;9.456;2023-11-19T08:07:17;0.97;;;0.97;;
18383;SDS011;9318;48.644;9.456;2023-11-19T08:09:44;1.10;;;1.10;;
18383;SDS011;9318;48.644;9.456;2023-11-19T08:12:12;1.10;;;1.10;;
18383;SDS011;9318;48.644;9.456;2023-11-19T08:14:39;0.93;;;0.93;;
18383;SDS011;9318;48.644;9.456;2023-11-19T08:17:06;1.00;;;1.00;;
18383;SDS011;9318;48.644;9.456;2023-11-19T08:19:33;1.00;;;1.00;;
18383;SDS011;9318;48.644;9.456;2023-11-19T08:21:59;1.20;;;1.20;;
18383;SDS011;9318;48.644;9.456;2023-11-19T08:24:27;1.03;;;1.03;;
18383;SDS011;9318;48.644;9.456;2023-11-19T08:26:54;1.03;;;1.03;;
18383;SDS011;9318;48.644;9.456;2023-11-19T08:29:22;0.90;;;0.90;;
18383;SDS011;9318;48.644;9.456;2023-11-19T08:31:49;1.00;;;1.00;;
18383;SDS011;9318;48.644;9.456;2023-11-19T08:34:16;1.00;;;1.00;;
18383;SDS011;9318;48.644;9.456;2023-11-19T08:36:43;1.10;;;1.10;;
18383;SDS011;9318;48.644;9.456;2023-11-19T08:39:09;1.00;;;1.00;;
18383;SDS011;9318;48.644;9.456;2023-11-19T08:41:36;1.10;;;1.10;;
18383;SDS011;9318;48.644;9.456;2023-11-19T08:44:05;1.00;;;1.00;;
18383;SDS011;9318;48.644;9.456;2023-11-19T08:46:33;1.00;;;1.00;;
18383;SDS011;9318;48.644;9.456;2023-11-19T08:49:00;1.00;;;1.00;;
18383;SDS011;9318;48.644;9.456;2023-11-19T08:51:26;1.00;;;1.00;;
18383;SDS011;9318;48.644;9.456;2023-11-19T08:53:53;1.00;;;1.00;;
18383;SDS011;9318;48.644;9.456;2023-11-19T08:56:20;0.90;;;0.90;;
18383;SDS011;9318;48.644;9.456;2023-11-19T08:58:47;0.90;;;0.90;;
18383;SDS011;9318;48.644;9.456;2023-11-19T09:01:14;1.00;;;1.00;;
18383;SDS011;9318;48.644;9.456;2023-11-19T09:03:42;1.00;;;1.00;;
18383;SDS011;9318;48.644;9.456;2023-11-19T09:06:09;1.00;;;1.00;;
18383;SDS011;9318;48.644;9.456;2023-11-19T09:08:35;0.87;;;0.87;;
18383;SDS011;9318;48.644;9.456;2023-11-19T09:11:06;0.90;;;0.90;;
18383;SDS011;9318;48.644;9.456;2023-11-19T09:13:33;0.90;;;0.90;;
18383;SDS011;9318;48.644;9.456;2023-11-19T09:16:00;1.00;;;1.00;;
18383;SDS011;9318;48.644;9.456;2023-11-19T09:18:28;1.00;;;1.00;;
18383;SDS011;9318;48.644;9.456;2023-11-19T09:20:56;0.90;;;0.90;;
18383;SDS011;9318;48.644;9.456;2023-11-19T09:23:23;0.97;;;0.97;;
18383;SDS011;9318;48.644;9.456;2023-11-19T09:25:50;0.90;;;0.90;;
18383;SDS011;9318;48.644;9.456;2023-11-19T09:28:17;1.00;;;1.00;;
18383;SDS011;9318;48.644;9.456;2023-11-19T09:30:44;1.00;;;1.00;;
18383;SDS011;9318;48.644;9.456;2023-11-19T09:33:10;0.90;;;0.90;;
18383;SDS011;9318;48.644;9.456;2023-11-19T09:35:37;0.77;;;0.77;;
18383;SDS011;9318;48.644;9.456;2023-11-19T09:38:05;0.90;;;0.90;;
18383;SDS011;9318;48.644;9.456;2023-11-19T09:40:32;1.00;;;1.00;;
18383;SDS011;9318;48.644;9.456;2023-11-19T09:42:59;0.90;;;0.90;;
18383;SDS011;9318;48.644;9.456;2023-11-19T09:45:27;0.90;;;0.90;;
18383;SDS011;9318;48.644;9.456;2023-11-19T09:47:54;0.90;;;0.90;;
18383;SDS011;9318;48.644;9.456;2023-11-19T09:50:23;1.00;;;1.00;;
18383;SDS011;9318;48.644;9.456;2023-11-19T09:52:49;0.80;;;0.80;;
18383;SDS011;9318;48.644;9.456;2023-11-19T09:55:18;0.90;;;0.90;;
18383;SDS011;9318;48.644;9.456;2023-11-19T09:57:45;1.00;;;1.00;;
18383;SDS011;9318;48.644;9.456;2023-11-19T10:00:13;1.00;;;1.00;;
18383;SDS011;9318;48.644;9.456;2023-11-19T10:02:41;0.90;;;0.90;;
18383;SDS011;9318;48.644;9.456;2023-11-19T10:05:11;0.90;;;0.90;;
18383;SDS011;9318;48.644;9.456;2023-11-19T10:07:39;0.90;;;0.90;;
18383;SDS011;9318;48.644;9.456;2023-11-19T10:10:07;0.90;;;0.90;;
18383;SDS011;9318;48.644;9.456;2023-11-19T10:12:37;0.90;;;0.90;;
18383;SDS011;9318;48.644;9.456;2023-11-19T10:15:05;0.80;;;0.80;;
18383;SDS011;9318;48.644;9.456;2023-11-19T10:17:35;0.95;;;0.95;;
18383;SDS011;9318;48.644;9.456;2023-11-19T10:20:02;1.00;;;1.00;;
18383;SDS011;9318;48.644;9.456;2023-11-19T10:22:30;0.90;;;0.90;;
18383;SDS011;9318;48.644;9.456;2023-11-19T10:24:56;0.82;;;0.82;;
18383;SDS011;9318;48.644;9.456;2023-11-19T10:27:23;0.90;;;0.90;;
18383;SDS011;9318;48.644;9.456;2023-11-19T10:29:52;0.93;;;0.93;;
18383;SDS011;9318;48.644;9.456;2023-11-19T10:32:18;0.80;;;0.80;;
18383;SDS011;9318;48.644;9.456;2023-11-19T10:34:45;0.80;;;0.80;;
18383;SDS011;9318;48.644;9.456;2023-11-19T10:37:20;0.90;;;0.90;;
18383;SDS011;9318;48.644;9.456;2023-11-19T10:39:54;0.90;;;0.90;;
18383;SDS011;9318;48.644;9.456;2023-11-19T10:42:20;0.80;;;0.80;;
18383;SDS011;9318;48.644;9.456;2023-11-19T10:44:47;0.90;;;0.90;;
18383;SDS011;9318;48.644;9.456;2023-11-19T10:47:16;0.80;;;0.80;;
18383;SDS011;9318;48.644;9.456;2023-11-19T10:49:45;0.75;;;0.75;;
18383;SDS011;9318;48.644;9.456;2023-11-19T10:52:12;0.88;;;0.88;;
18383;SDS011;9318;48.644;9.456;2023-11-19T10:54:43;0.70;;;0.70;;
18383;SDS011;9318;48.644;9.456;2023-11-19T10:57:12;0.70;;;0.70;;
18383;SDS011;9318;48.644;9.456;2023-11-19T10:59:46;0.80;;;0.80;;
18383;SDS011;9318;48.644;9.456;2023-11-19T11:02:18;0.80;;;0.80;;
18383;SDS011;9318;48.644;9.456;2023-11-19T11:04:48;0.85;;;0.85;;
18383;SDS011;9318;48.644;9.456;2023-11-19T11:07:17;0.80;;;0.80;;
18383;SDS011;9318;48.644;9.456;2023-11-19T11:09:50;0.70;;;0.70;;
18383;SDS011;9318;48.644;9.456;2023-11-19T11:12:17;0.90;;;0.90;;
18383;SDS011;9318;48.644;9.456;2023-11-19T11:14:49;0.88;;;0.88;;
18383;SDS011;9318;48.644;9.456;2023-11-19T11:17:19;0.90;;;0.90;;
18383;SDS011;9318;48.644;9.456;2023-11-19T11:19:50;0.80;;;0.80;;
18383;SDS011;9318;48.644;9.456;2023-11-19T11:22:17;0.80;;;0.80;;
18383;SDS011;9318;48.644;9.456;2023-11-19T11:27:48;0.80;;;0.80;;
18383;SDS011;9318;48.644;9.456;2023-11-19T11:30:35;0.70;;;0.70;;
18383;SDS011;9318;48.644;9.456;2023-11-19T11:33:19;0.82;;;0.82;;
18383;SDS011;9318;48.644;9.456;2023-11-19T11:36:00;0.70;;;0.70;;
18383;SDS011;9318;48.644;9.456;2023-11-19T11:38:37;0.80;;;0.80;;
18383;SDS011;9318;48.644;9.456;2023-11-19T11:41:16;0.80;;;0.80;;
18383;SDS011;9318;48.644;9.456;2023-11-19T11:43:45;0.60;;;0.60;;
18383;SDS011;9318;48.644;9.456;2023-11-19T11:49:18;0.75;;;0.75;;
18383;SDS011;9318;48.644;9.456;2023-11-19T11:52:01;0.70;;;0.70;;
18383;SDS011;9318;48.644;9.456;2023-11-19T11:54:32;0.70;;;0.70;;
18383;SDS011;9318;48.644;9.456;2023-11-19T11:57:03;0.90;;;0.90;;
18383;SDS011;9318;48.644;9.456;2023-11-19T11:59:45;0.80;;;0.80;;
18383;SDS011;9318;48.644;9.456;2023-11-19T12:02:13;0.80;;;0.80;;
18383;SDS011;9318;48.644;9.456;2023-11-19T12:04:42;0.70;;;0.70;;
18383;SDS011;9318;48.644;9.456;2023-11-19T12:07:13;0.80;;;0.80;;
18383;SDS011;9318;48.644;9.456;2023-11-19T12:09:41;0.70;;;0.70;;
18383;SDS011;9318;48.644;9.456;2023-11-19T12:12:17;0.90;;;0.90;;
18383;SDS011;9318;48.644;9.456;2023-11-19T12:20:24;0.70;;;0.70;;
18383;SDS011;9318;48.644;9.456;2023-11-19T12:22:52;0.80;;;0.80;;
18383;SDS011;9318;48.644;9.456;2023-11-19T12:25:19;0.80;;;0.80;;
18383;SDS011;9318;48.644;9.456;2023-11-19T12:27:48;0.90;;;0.90;;
18383;SDS011;9318;48.644;9.456;2023-11-19T12:30:20;0.80;;;0.80;;
18383;SDS011;9318;48.644;9.456;2023-11-19T12:32:48;0.70;;;0.70;;
18383;SDS011;9318;48.644;9.456;2023-11-19T12:35:15;0.90;;;0.90;;
18383;SDS011;9318;48.644;9.456;2023-11-19T12:37:44;0.68;;;0.68;;
18383;SDS011;9318;48.644;9.456;2023-11-19T12:40:13;0.85;;;0.85;;
18383;SDS011;9318;48.644;9.456;2023-11-19T12:42:42;0.70;;;0.70;;
18383;SDS011;9318;48.644;9.456;2023-11-19T12:45:09;0.70;;;0.70;;
18383;SDS011;9318;48.644;9.456;2023-11-19T12:47:37;0.70;;;0.70;;
18383;SDS011;9318;48.644;9.456;2023-11-19T12:50:04;0.70;;;0.70;;
18383;SDS011;9318;48.644;9.456;2023-11-19T12:52:32;0.70;;;0.70;;
18383;SDS011;9318;48.644;9.456;2023-11-19T12:55:00;0.70;;;0.70;;
18383;SDS011;9318;48.644;9.456;2023-11-19T12:57:37;0.70;;;0.70;;
18383;SDS011;9318;48.644;9.456;2023-11-19T13:00:07;0.70;;;0.70;;
18383;SDS011;9318;48.644;9.456;2023-11-19T13:02:46;0.77;;;0.77;;
18383;SDS011;9318;48.644;9.456;2023-11-19T13:05:21;0.70;;;0.70;;
18383;SDS011;9318;48.644;9.456;2023-11-19T13:07:57;0.70;;;0.70;;
18383;SDS011;9318;48.644;9.456;2023-11-19T13:10:26;0.85;;;0.85;;
18383;SDS011;9318;48.644;9.456;2023-11-19T13:13:03;0.80;;;0.80;;
18383;SDS011;9318;48.644;9.456;2023-11-19T13:15:31;0.77;;;0.77;;
18383;SDS011;9318;48.644;9.456;2023-11-19T13:17:58;0.77;;;0.77;;
18383;SDS011;9318;48.644;9.456;2023-11-19T13:20:25;0.80;;;0.80;;
18383;SDS011;9318;48.644;9.456;2023-11-19T13:22:56;0.82;;;0.82;;
18383;SDS011;9318;48.644;9.456;2023-11-19T13:25:23;0.80;;;0.80;;
18383;SDS011;9318;48.644;9.456;2023-11-19T13:27:52;0.80;;;0.80;;
18383;SDS011;9318;48.644;9.456;2023-11-19T13:30:19;0.80;;;0.80;;
18383;SDS011;9318;48.644;9.456;2023-11-19T13:32:47;0.70;;;0.70;;
18383;SDS011;9318;48.644;9.456;2023-11-19T13:35:14;0.70;;;0.70;;
18383;SDS011;9318;48.644;9.456;2023-11-19T13:37:42;0.70;;;0.70;;
18383;SDS011;9318;48.644;9.456;2023-11-19T13:40:09;0.70;;;0.70;;
18383;SDS011;9318;48.644;9.456;2023-11-19T13:42:39;0.80;;;0.80;;
18383;SDS011;9318;48.644;9.456;2023-11-19T13:45:08;0.77;;;0.77;;
18383;SDS011;9318;48.644;9.456;2023-11-19T13:47:37;0.77;;;0.77;;
18383;SDS011;9318;48.644;9.456;2023-11-19T13:50:06;0.70;;;0.70;;
18383;SDS011;9318;48.644;9.456;2023-11-19T13:52:34;0.80;;;0.80;;
18383;SDS011;9318;48.644;9.456;2023-11-19T13:55:02;0.60;;;0.60;;
18383;SDS011;9318;48.644;9.456;2023-11-19T13:57:30;0.70;;;0.70;;
18383;SDS011;9318;48.644;9.456;2023-11-19T13:59:57;0.90;;;0.90;;
18383;SDS011;9318;48.644;9.456;2023-11-19T14:02:25;0.80;;;0.80;;
18383;SDS011;9318;48.644;9.456;2023-11-19T14:04:52;0.80;;;0.80;;
18383;SDS011;9318;48.644;9.456;2023-11-19T14:07:19;0.82;;;0.82;;
18383;SDS011;9318;48.644;9.456;2023-11-19T14:09:46;0.88;;;0.88;;
18383;SDS011;9318;48.644;9.456;2023-11-19T14:12:13;0.80;;;0.80;;
18383;SDS011;9318;48.644;9.456;2023-11-19T14:14:39;0.70;;;0.70;;
18383;SDS011;9318;48.644;9.456;2023-11-19T14:17:07;0.70;;;0.70;;
18383;SDS011;9318;48.644;9.456;2023-11-19T14:19:35;0.77;;;0.77;;
18383;SDS011;9318;48.644;9.456;2023-11-19T14:22:03;0.77;;;0.77;;
18383;SDS011;9318;48.644;9.456;2023-11-19T14:24:30;0.55;;;0.55;;
18383;SDS011;9318;48.644;9.456;2023-11-19T14:26:56;0.90;;;0.90;;
18383;SDS011;9318;48.644;9.456;2023-11-19T14:29:24;0.77;;;0.77;;
18383;SDS011;9318;48.644;9.456;2023-11-19T14:31:51;0.70;;;0.70;;
18383;SDS011;9318;48.644;9.456;2023-11-19T14:34:19;0.80;;;0.80;;
18383;SDS011;9318;48.644;9.456;2023-11-19T14:36:47;0.65;;;0.65;;
18383;SDS011;9318;48.644;9.456;2023-11-19T14:39:14;0.70;;;0.70;;
18383;SDS011;9318;48.644;9.456;2023-11-19T14:41:42;0.70;;;0.70;;
18383;SDS011;9318;48.644;9.456;2023-11-19T14:44:09;0.75;;;0.75;;
18383;SDS011;9318;48.644;9.456;2023-11-19T14:46:36;0.80;;;0.80;;
18383;SDS011;9318;48.644;9.456;2023-11-19T14:49:03;0.80;;;0.80;;
18383;SDS011;9318;48.644;9.456;2023-11-19T14:51:30;0.80;;;0.80;;
18383;SDS011;9318;48.644;9.456;2023-11-19T14:53:58;0.70;;;0.70;;
18383;SDS011;9318;48.644;9.456;2023-11-19T14:56:24;0.90;;;0.90;;
18383;SDS011;9318;48.644;9.456;2023-11-19T14:58:51;0.88;;;0.88;;
18383;SDS011;9318;48.644;9.456;2023-11-19T15:01:18;0.70;;;0.70;;
18383;SDS011;9318;48.644;9.456;2023-11-19T15:03:45;0.80;;;0.80;;
18383;SDS011;9318;48.644;9.456;2023-11-19T15:06:11;0.88;;;0.88;;
18383;SDS011;9318;48.644;9.456;2023-11-19T15:08:38;0.80;;;0.80;;
18383;SDS011;9318;48.644;9.456;2023-11-19T15:11:06;0.85;;;0.85;;
18383;SDS011;9318;48.644;9.456;2023-11-19T15:13:34;0.80;;;0.80;;
18383;SDS011;9318;48.644;9.456;2023-11-19T15:16:02;0.70;;;0.70;;
18383;SDS011;9318;48.644;9.456;2023-11-19T15:18:30;0.90;;;0.90;;
18383;SDS011;9318;48.644;9.456;2023-11-19T15:20:57;0.80;;;0.80;;